createdAt,value
2023-04-21T00:01:48.958Z,100549.63
2023-04-21T00:04:15.763Z,100541.00
2023-04-21T00:06:42.726Z,100547.94
2023-04-21T00:09:11.053Z,100548.81
2023-04-21T00:11:37.953Z,100539.81
2023-04-21T00:14:04.536Z,100539.31
2023-04-21T00:16:31.126Z,100541.75
2023-04-21T00:18:58.114Z,100530.78
2023-04-21T00:21:25.200Z,100537.75
2023-04-21T00:23:51.781Z,100536.88
2023-04-21T00:26:18.272Z,100529.66
2023-04-21T00:28:44.728Z,100532.47
2023-04-21T00:31:11.264Z,100528.75
2023-04-21T00:33:37.862Z,100522.03
2023-04-21T00:36:04.702Z,100528.34
2023-04-21T00:38:31.172Z,100527.69
2023-04-21T00:40:57.629Z,100521.63
2023-04-21T00:43:25.818Z,100512.22
2023-04-21T00:45:52.404Z,100521.41
2023-04-21T00:48:18.958Z,100509.41
2023-04-21T00:50:45.752Z,100512.75
2023-04-21T00:53:12.865Z,100509.78
2023-04-21T00:55:39.562Z,100510.44
2023-04-21T00:58:06.103Z,100506.56
2023-04-21T01:00:32.634Z,100514.84
2023-04-21T01:03:01.196Z,100518.69
2023-04-21T01:05:27.837Z,100512.00
2023-04-21T01:07:54.365Z,100511.72
2023-04-21T01:10:20.863Z,100522.03
2023-04-21T01:12:48.087Z,100527.72
2023-04-21T01:15:17.326Z,100522.94
2023-04-21T01:17:44.226Z,100523.19
2023-04-21T01:20:14.339Z,100521.63
2023-04-21T01:22:42.577Z,100532.09
2023-04-21T01:25:10.127Z,100533.13
2023-04-21T01:27:37.144Z,100526.13
2023-04-21T01:30:05.668Z,100533.22
2023-04-21T01:32:32.339Z,100525.47
2023-04-21T01:34:59.436Z,100532.56
2023-04-21T01:37:29.553Z,100531.53
2023-04-21T01:39:58.701Z,100529.97
2023-04-21T01:42:27.712Z,100535.66
2023-04-21T01:44:54.906Z,100537.72
2023-04-21T01:47:22.233Z,100540.81
2023-04-21T01:49:48.821Z,100537.44
2023-04-21T01:52:15.463Z,100535.00
2023-04-21T01:54:41.973Z,100543.38
2023-04-21T01:57:08.638Z,100542.22
2023-04-21T01:59:35.249Z,100541.47
2023-04-21T02:02:01.794Z,100538.75
2023-04-21T02:04:28.444Z,100541.84
2023-04-21T02:06:55.021Z,100534.09
2023-04-21T02:09:21.770Z,100536.69
2023-04-21T02:11:48.476Z,100539.81
2023-04-21T02:14:14.942Z,100539.25
2023-04-21T02:16:41.489Z,100553.19
2023-04-21T02:19:08.219Z,100548.94
2023-04-21T02:21:34.695Z,100546.84
2023-04-21T02:24:01.161Z,100549.81
2023-04-21T02:26:27.631Z,100551.63
2023-04-21T02:28:54.147Z,100548.66
2023-04-21T02:31:20.952Z,100558.97
2023-04-21T02:33:47.628Z,100554.31
2023-04-21T02:36:14.171Z,100549.28
2023-04-21T02:38:40.676Z,100550.69
2023-04-21T02:41:07.075Z,100550.16
2023-04-21T02:43:33.631Z,100547.75
2023-04-21T02:46:00.048Z,100551.13
2023-04-21T02:48:26.854Z,100560.53
2023-04-21T02:50:53.409Z,100552.66
2023-04-21T02:53:20.843Z,100561.66
2023-04-21T02:55:47.562Z,100556.41
2023-04-21T02:58:14.021Z,100549.81
2023-04-21T03:00:40.704Z,100548.00
2023-04-21T03:03:07.840Z,100553.16
2023-04-21T03:05:34.375Z,100556.34
2023-04-21T03:08:00.773Z,100560.19
2023-04-21T03:10:27.270Z,100567.84
2023-04-21T03:12:53.829Z,100565.25
2023-04-21T03:15:20.955Z,100569.63
2023-04-21T03:17:47.408Z,100567.94
2023-04-21T03:20:13.934Z,100561.38
2023-04-21T03:22:40.426Z,100562.31
2023-04-21T03:25:07.588Z,100568.88
2023-04-21T03:27:34.891Z,100561.78
2023-04-21T03:30:01.375Z,100568.38
2023-04-21T03:32:27.911Z,100566.81
2023-04-21T03:34:54.377Z,100565.69
2023-04-21T03:37:20.859Z,100561.41
2023-04-21T03:39:47.315Z,100554.47
2023-04-21T03:42:13.774Z,100553.16
2023-04-21T03:44:40.387Z,100557.94
2023-04-21T03:47:07.823Z,100559.50
2023-04-21T03:49:35.044Z,100550.88
2023-04-21T03:52:01.634Z,100561.94
2023-04-21T03:54:28.094Z,100568.00
2023-04-21T03:56:54.536Z,100565.78
2023-04-21T03:59:21.458Z,100569.91
2023-04-21T04:01:48.060Z,100573.38
2023-04-21T04:04:14.669Z,100575.44
2023-04-21T04:06:41.687Z,100583.69
2023-04-21T04:09:08.978Z,100584.84
2023-04-21T04:11:35.487Z,100588.22
2023-04-21T04:14:01.941Z,100583.84
2023-04-21T04:16:29.087Z,100586.03
2023-04-21T04:18:56.405Z,100579.09
2023-04-21T04:21:23.009Z,100584.63
2023-04-21T04:23:51.721Z,100594.41
2023-04-21T04:26:18.695Z,100587.19
2023-04-21T04:28:45.656Z,100593.91
2023-04-21T04:31:13.644Z,100580.88
2023-04-21T04:33:44.051Z,100595.97
2023-04-21T04:36:12.021Z,100599.44
2023-04-21T04:38:38.645Z,100600.59
2023-04-21T04:41:06.219Z,100603.78
2023-04-21T04:43:33.515Z,100611.75
2023-04-21T04:46:00.197Z,100606.75
2023-04-21T04:48:26.611Z,100611.16
2023-04-21T04:50:53.158Z,100614.72
2023-04-21T04:53:19.705Z,100625.97
2023-04-21T04:55:47.160Z,100627.50
2023-04-21T04:58:13.936Z,100638.06
2023-04-21T05:00:40.514Z,100638.84
2023-04-21T05:03:07.133Z,100644.38
2023-04-21T05:05:33.654Z,100638.47
2023-04-21T05:08:00.163Z,100642.09
2023-04-21T05:10:26.639Z,100633.03
2023-04-21T05:12:53.118Z,100640.13
2023-04-21T05:15:19.593Z,100643.72
2023-04-21T05:17:45.997Z,100644.66
2023-04-21T05:20:12.704Z,100657.28
2023-04-21T05:22:39.644Z,100658.03
2023-04-21T05:25:06.845Z,100665.28
2023-04-21T05:27:34.095Z,100662.44
2023-04-21T05:30:00.839Z,100665.38
2023-04-21T05:32:27.519Z,100668.25
2023-04-21T05:34:54.059Z,100665.09
2023-04-21T05:37:20.731Z,100665.66
2023-04-21T05:39:47.150Z,100663.59
2023-04-21T05:42:13.527Z,100661.91
2023-04-21T05:44:40.031Z,100673.25
2023-04-21T05:47:07.836Z,100670.69
2023-04-21T05:49:34.300Z,100667.22
2023-04-21T05:52:00.752Z,100666.31
2023-04-21T05:54:27.175Z,100670.44
2023-04-21T05:56:53.554Z,100669.41
2023-04-21T05:59:19.943Z,100674.56
2023-04-21T06:01:46.575Z,100664.06
2023-04-21T06:04:13.302Z,100673.13
2023-04-21T06:06:39.835Z,100676.88
2023-04-21T06:09:07.861Z,100679.06
2023-04-21T06:11:34.316Z,100673.50
2023-04-21T06:14:01.751Z,100684.56
2023-04-21T06:16:28.285Z,100684.31
2023-04-21T06:18:54.832Z,100684.31
2023-04-21T06:21:21.242Z,100686.91
2023-04-21T06:23:47.647Z,100686.13
2023-04-21T06:26:14.119Z,100690.75
2023-04-21T06:28:40.818Z,100691.78
2023-04-21T06:31:09.671Z,100691.66
2023-04-21T06:33:36.365Z,100689.06
2023-04-21T06:36:02.887Z,100690.84
2023-04-21T06:38:29.332Z,100698.44
2023-04-21T06:40:55.935Z,100693.13
2023-04-21T06:43:22.359Z,100688.09
2023-04-21T06:45:48.805Z,100691.78
2023-04-21T06:48:15.339Z,100695.00
2023-04-21T06:50:44.317Z,100692.13
2023-04-21T06:53:14.110Z,100700.25
2023-04-21T06:55:40.634Z,100696.47
2023-04-21T06:58:07.124Z,100698.25
2023-04-21T07:00:33.610Z,100700.97
2023-04-21T07:03:00.070Z,100697.19
2023-04-21T07:05:26.573Z,100691.91
2023-04-21T07:07:55.788Z,100702.81
2023-04-21T07:10:22.253Z,100694.47
2023-04-21T07:12:48.698Z,100693.81
2023-04-21T07:15:15.243Z,100702.81
2023-04-21T07:17:41.699Z,100696.09
2023-04-21T07:20:08.731Z,100699.97
2023-04-21T07:22:36.138Z,100701.97
2023-04-21T07:25:06.389Z,100705.19
2023-04-21T07:27:38.785Z,100707.88
2023-04-21T07:30:05.923Z,100713.88
2023-04-21T07:32:33.747Z,100712.84
2023-04-21T07:35:01.865Z,100706.44
2023-04-21T07:37:28.752Z,100717.16
2023-04-21T07:39:55.291Z,100721.84
2023-04-21T07:42:22.399Z,100723.75
2023-04-21T07:44:49.130Z,100719.50
2023-04-21T07:47:15.613Z,100722.91
2023-04-21T07:49:42.258Z,100728.28
2023-04-21T07:52:09.118Z,100727.41
2023-04-21T07:54:36.102Z,100727.84
2023-04-21T07:57:03.035Z,100731.22
2023-04-21T07:59:30.030Z,100726.66
2023-04-21T08:01:57.260Z,100729.75
2023-04-21T08:04:24.026Z,100737.72
2023-04-21T08:06:50.916Z,100739.63
2023-04-21T08:09:17.712Z,100743.03
2023-04-21T08:11:44.288Z,100732.00
2023-04-21T08:14:11.834Z,100746.97
2023-04-21T08:16:39.037Z,100751.56
2023-04-21T08:19:07.176Z,100746.84
2023-04-21T08:21:33.987Z,100747.59
2023-04-21T08:24:01.048Z,100752.78
2023-04-21T08:26:30.006Z,100750.63
2023-04-21T08:28:58.141Z,100752.31
2023-04-21T08:31:24.654Z,100756.81
2023-04-21T08:34:01.311Z,100752.91
2023-04-21T08:36:30.371Z,100756.91
2023-04-21T08:38:57.822Z,100756.91
2023-04-21T08:41:25.613Z,100763.78
2023-04-21T08:43:53.334Z,100772.91
2023-04-21T08:46:20.076Z,100765.53
2023-04-21T08:48:47.471Z,100766.34
2023-04-21T08:51:21.203Z,100765.69
2023-04-21T08:53:47.859Z,100771.31
2023-04-21T08:56:14.801Z,100767.41
2023-04-21T08:58:41.773Z,100769.19
2023-04-21T09:01:08.466Z,100775.38
2023-04-21T09:03:35.220Z,100775.63
2023-04-21T09:06:07.793Z,100776.44
2023-04-21T09:08:38.316Z,100771.50
2023-04-21T09:11:04.779Z,100779.94
2023-04-21T09:13:37.865Z,100776.00
2023-04-21T09:16:14.749Z,100775.19
2023-04-21T09:18:44.081Z,100765.88
2023-04-21T09:21:20.440Z,100766.56
2023-04-21T09:23:55.470Z,100775.47
2023-04-21T09:26:23.238Z,100781.16
2023-04-21T09:28:51.161Z,100772.38
2023-04-21T09:31:24.878Z,100770.09
2023-04-21T09:33:59.556Z,100778.66
2023-04-21T09:36:30.397Z,100774.44
2023-04-21T09:39:24.310Z,100788.53
2023-04-21T09:41:45.940Z,100776.59
2023-04-21T09:44:12.461Z,100771.66
2023-04-21T09:46:43.549Z,100772.56
2023-04-21T09:49:13.711Z,100779.47
2023-04-21T09:52:06.082Z,100781.56
2023-04-21T09:54:34.561Z,100777.97
2023-04-21T09:57:02.712Z,100773.69
2023-04-21T09:59:45.001Z,100785.47
2023-04-21T10:02:12.830Z,100790.44
2023-04-21T10:04:42.592Z,100795.53
2023-04-21T10:07:10.878Z,100788.50
2023-04-21T10:09:42.935Z,100781.34
2023-04-21T10:12:10.310Z,100779.03
2023-04-21T10:14:36.767Z,100778.81
2023-04-21T10:17:09.816Z,100764.66
2023-04-21T10:19:41.583Z,100767.84
2023-04-21T10:22:09.713Z,100770.41
2023-04-21T10:24:41.305Z,100771.31
2023-04-21T10:27:12.787Z,100769.59
2023-04-21T10:29:55.321Z,100766.94
2023-04-21T10:33:05.273Z,100763.84
2023-04-21T10:36:01.597Z,100763.78
2023-04-21T10:39:00.925Z,100758.59
2023-04-21T10:41:32.535Z,100761.09
2023-04-21T10:44:00.475Z,100759.41
2023-04-21T10:46:34.984Z,100750.00
2023-04-21T10:49:11.840Z,100747.94
2023-04-21T10:52:02.944Z,100747.94
2023-04-21T10:54:42.159Z,100754.34
2023-04-21T10:57:12.778Z,100740.75
2023-04-21T10:59:39.691Z,100741.63
2023-04-21T11:02:13.886Z,100731.91
2023-04-21T11:04:45.271Z,100739.91
2023-04-21T11:07:17.497Z,100737.22
2023-04-21T11:09:45.842Z,100729.81
2023-04-21T11:12:20.120Z,100733.00
2023-04-21T11:14:50.574Z,100725.72
2023-04-21T11:17:19.699Z,100723.31
2023-04-21T11:19:57.906Z,100739.97
2023-04-21T11:22:26.303Z,100725.72
2023-04-21T11:24:56.976Z,100737.00
2023-04-21T11:27:26.132Z,100735.72
2023-04-21T11:29:52.623Z,100733.03
2023-04-21T11:32:19.235Z,100737.41
2023-04-21T11:34:46.158Z,100733.72
2023-04-21T11:37:24.835Z,100732.91
2023-04-21T11:40:00.129Z,100736.50
2023-04-21T11:42:27.960Z,100735.81
2023-04-21T11:45:05.301Z,100733.81
2023-04-21T11:47:31.847Z,100733.94
2023-04-21T11:50:00.890Z,100735.13
2023-04-21T11:52:37.318Z,100736.00
2023-04-21T11:55:16.124Z,100732.91
2023-04-21T11:57:42.525Z,100728.00
2023-04-21T12:00:15.172Z,100735.78
2023-04-21T12:02:42.781Z,100731.41
2023-04-21T12:05:11.752Z,100727.09
2023-04-21T12:07:41.773Z,100727.09
2023-04-21T12:10:14.222Z,100719.63
2023-04-21T12:12:42.400Z,100728.00
2023-04-21T12:15:10.984Z,100728.00
2023-04-21T12:17:48.466Z,100726.63
2023-04-21T12:20:20.547Z,100732.69
2023-04-21T12:22:47.820Z,100732.63
2023-04-21T12:25:14.390Z,100736.31
2023-04-21T12:27:51.230Z,100734.59
2023-04-21T12:30:18.808Z,100738.00
2023-04-21T12:32:46.434Z,100730.78
2023-04-21T12:35:13.124Z,100731.53
2023-04-21T12:37:39.540Z,100721.38
2023-04-21T12:40:07.918Z,100730.00
2023-04-21T12:42:36.702Z,100721.00
2023-04-21T12:45:05.336Z,100718.50
2023-04-21T12:47:31.904Z,100707.91
2023-04-21T12:49:58.422Z,100708.28
2023-04-21T12:52:24.858Z,100705.31
2023-04-21T12:54:51.319Z,100711.88
2023-04-21T12:57:17.876Z,100709.47
2023-04-21T12:59:46.356Z,100709.03
2023-04-21T13:02:13.254Z,100711.03
2023-04-21T13:04:42.021Z,100714.25
2023-04-21T13:07:09.080Z,100711.47
2023-04-21T13:09:35.654Z,100701.53
2023-04-21T13:12:02.212Z,100704.50
2023-04-21T13:14:29.240Z,100688.94
2023-04-21T13:16:57.994Z,100691.28
2023-04-21T13:19:24.906Z,100690.31
2023-04-21T13:21:53.992Z,100686.44
2023-04-21T13:24:21.256Z,100696.47
2023-04-21T13:26:47.740Z,100685.44
2023-04-21T13:29:14.441Z,100682.19
2023-04-21T13:31:41.017Z,100687.81
2023-04-21T13:34:07.605Z,100680.97
2023-04-21T13:36:34.036Z,100682.78
2023-04-21T13:39:01.830Z,100676.56
2023-04-21T13:41:28.346Z,100681.22
2023-04-21T13:43:54.773Z,100671.38
2023-04-21T13:46:21.246Z,100676.16
2023-04-21T13:48:48.651Z,100671.81
2023-04-21T13:51:15.319Z,100662.47
2023-04-21T13:53:41.857Z,100659.09
2023-04-21T13:56:10.111Z,100663.03
2023-04-21T13:58:36.663Z,100661.63
2023-04-21T14:01:04.082Z,100665.56
2023-04-21T14:03:31.216Z,100659.25
2023-04-21T14:05:57.987Z,100650.94
2023-04-21T14:08:24.766Z,100647.88
2023-04-21T14:10:51.210Z,100646.72
2023-04-21T14:15:50.323Z,100655.16
2023-04-21T14:18:16.892Z,100657.84
2023-04-21T14:20:45.898Z,100654.69
2023-04-21T14:23:13.538Z,100671.78
2023-04-21T14:25:40.308Z,100652.81
2023-04-21T14:28:08.309Z,100661.47
2023-04-21T14:30:36.315Z,100646.31
2023-04-21T14:33:10.497Z,100648.34
2023-04-21T14:35:37.757Z,100643.84
2023-04-21T14:38:09.914Z,100653.06
2023-04-21T14:40:39.632Z,100649.00
2023-04-21T14:43:06.207Z,100642.13
2023-04-21T14:45:32.788Z,100648.69
2023-04-21T14:47:59.410Z,100647.41
2023-04-21T14:50:25.956Z,100643.72
2023-04-21T14:52:52.423Z,100652.41
2023-04-21T14:55:19.125Z,100646.53
2023-04-21T14:57:47.023Z,100645.44
2023-04-21T15:00:13.987Z,100641.88
2023-04-21T15:02:41.150Z,100646.41
2023-04-21T15:05:08.821Z,100658.19
2023-04-21T15:07:35.954Z,100646.69
2023-04-21T15:10:02.454Z,100646.69
2023-04-21T15:12:28.922Z,100643.47
2023-04-21T15:14:55.494Z,100641.03
2023-04-21T15:17:21.967Z,100646.25
2023-04-21T15:19:51.242Z,100644.25
2023-04-21T15:22:17.917Z,100648.47
2023-04-21T15:24:45.471Z,100643.72
2023-04-21T15:27:11.939Z,100643.72
2023-04-21T15:29:38.491Z,100641.50
2023-04-21T15:32:05.065Z,100647.84
2023-04-21T15:34:31.550Z,100651.00
2023-04-21T15:36:58.136Z,100644.53
2023-04-21T15:39:24.545Z,100641.47
2023-04-21T15:41:51.323Z,100638.59
2023-04-21T15:44:17.730Z,100640.56
2023-04-21T15:46:44.280Z,100640.78
2023-04-21T15:49:10.888Z,100634.91
2023-04-21T15:51:37.754Z,100632.31
2023-04-21T15:54:04.910Z,100636.81
2023-04-21T15:56:31.311Z,100642.13
2023-04-21T15:58:57.851Z,100643.44
2023-04-21T16:01:24.548Z,100639.13
2023-04-21T16:03:51.996Z,100636.69
2023-04-21T16:06:20.806Z,100638.41
2023-04-21T16:08:47.442Z,100635.50
2023-04-21T16:11:13.980Z,100641.25
2023-04-21T16:13:40.577Z,100642.13
2023-04-21T16:16:07.102Z,100638.75
2023-04-21T16:18:33.678Z,100635.16
2023-04-21T16:21:00.314Z,100632.28
2023-04-21T16:23:30.116Z,100642.56
2023-04-21T16:25:56.664Z,100641.84
2023-04-21T16:28:23.177Z,100642.47
2023-04-21T16:30:50.071Z,100641.41
2023-04-21T16:33:16.933Z,100645.88
2023-04-21T16:35:43.491Z,100645.78
2023-04-21T16:38:09.940Z,100642.19
2023-04-21T16:40:36.645Z,100648.91
2023-04-21T16:43:03.106Z,100644.16
2023-04-21T16:45:29.791Z,100645.63
2023-04-21T16:47:56.741Z,100650.13
2023-04-21T16:50:23.513Z,100654.44
2023-04-21T16:52:50.072Z,100650.84
2023-04-21T16:55:16.551Z,100654.25
2023-04-21T16:57:43.312Z,100654.44
2023-04-21T17:00:10.566Z,100658.63
2023-04-21T17:02:37.197Z,100668.84
2023-04-21T17:05:04.167Z,100670.25
2023-04-21T17:07:33.965Z,100664.63
2023-04-21T17:10:00.543Z,100661.13
2023-04-21T17:12:27.875Z,100658.09
2023-04-21T17:14:54.290Z,100655.88
2023-04-21T17:17:20.756Z,100653.75
2023-04-21T17:19:47.188Z,100652.63
2023-04-21T17:22:13.819Z,100657.53
2023-04-21T17:24:52.526Z,100646.03
2023-04-21T17:27:21.572Z,100653.91
2023-04-21T17:29:49.546Z,100656.63
2023-04-21T17:32:18.310Z,100647.84
2023-04-21T17:34:45.871Z,100646.25
2023-04-21T17:37:13.270Z,100649.13
2023-04-21T17:39:46.971Z,100652.00
2023-04-21T17:42:13.628Z,100654.06
2023-04-21T17:44:41.412Z,100647.34
2023-04-21T17:47:10.475Z,100652.31
2023-04-21T17:49:38.040Z,100646.94
2023-04-21T17:52:08.689Z,100649.53
2023-04-21T17:54:37.470Z,100651.81
2023-04-21T17:57:04.471Z,100660.34
2023-04-21T17:59:32.169Z,100662.88
2023-04-21T18:02:01.451Z,100664.13
2023-04-21T18:04:30.862Z,100652.94
2023-04-21T18:06:59.446Z,100652.88
2023-04-21T18:09:26.934Z,100666.59
2023-04-21T18:11:58.151Z,100663.25
2023-04-21T18:14:26.354Z,100672.34
2023-04-21T18:16:57.336Z,100671.38
2023-04-21T18:19:30.157Z,100665.13
2023-04-21T18:21:57.279Z,100670.38
2023-04-21T18:24:24.854Z,100675.88
2023-04-21T18:26:51.321Z,100673.28
2023-04-21T18:29:19.380Z,100675.00
2023-04-21T18:31:47.071Z,100677.47
2023-04-21T18:34:14.556Z,100675.19
2023-04-21T18:36:43.901Z,100676.00
2023-04-21T18:39:11.048Z,100685.47
2023-04-21T18:41:38.010Z,100684.16
2023-04-21T18:44:05.806Z,100694.94
2023-04-21T18:46:33.159Z,100698.00
2023-04-21T18:48:59.719Z,100700.38
2023-04-21T18:51:27.677Z,100705.66
2023-04-21T18:53:54.157Z,100699.38
2023-04-21T18:56:20.640Z,100701.72
2023-04-21T18:58:47.128Z,100704.91
2023-04-21T19:01:13.584Z,100710.53
2023-04-21T19:03:40.217Z,100713.59
2023-04-21T19:06:06.764Z,100712.56
2023-04-21T19:08:42.281Z,100715.94
2023-04-21T19:11:11.168Z,100720.56
2023-04-21T19:13:38.867Z,100720.88
2023-04-21T19:16:05.503Z,100726.06
2023-04-21T19:18:32.205Z,100726.53
2023-04-21T19:20:58.629Z,100727.56
2023-04-21T19:23:25.127Z,100730.22
2023-04-21T19:25:54.561Z,100727.09
2023-04-21T19:28:21.609Z,100727.75
2023-04-21T19:30:48.771Z,100724.84
2023-04-21T19:33:15.882Z,100733.81
2023-04-21T19:35:42.886Z,100737.09
2023-04-21T19:38:09.939Z,100738.53
2023-04-21T19:40:36.459Z,100732.25
2023-04-21T19:43:04.481Z,100742.38
2023-04-21T19:45:31.026Z,100734.84
2023-04-21T19:47:57.435Z,100747.88
2023-04-21T19:50:23.890Z,100736.53
2023-04-21T19:52:50.307Z,100740.47
2023-04-21T19:55:17.045Z,100740.13
2023-04-21T19:57:43.445Z,100743.19
2023-04-21T20:00:11.424Z,100742.72
2023-04-21T20:02:37.923Z,100735.63
2023-04-21T20:05:04.880Z,100741.69
2023-04-21T20:07:31.407Z,100747.53
2023-04-21T20:09:57.798Z,100743.03
2023-04-21T20:12:24.649Z,100745.09
2023-04-21T20:14:52.382Z,100749.13
2023-04-21T20:17:18.848Z,100744.97
2023-04-21T20:19:46.787Z,100748.44
2023-04-21T20:22:13.464Z,100756.59
2023-04-21T20:24:41.733Z,100753.63
2023-04-21T20:27:08.974Z,100751.03
2023-04-21T20:29:35.887Z,100751.50
2023-04-21T20:32:02.634Z,100752.03
2023-04-21T20:34:29.169Z,100750.91
2023-04-21T20:36:55.786Z,100754.28
2023-04-21T20:39:23.484Z,100760.13
2023-04-21T20:42:00.967Z,100756.41
2023-04-21T20:44:37.115Z,100750.53
2023-04-21T20:47:04.324Z,100757.66
2023-04-21T20:49:31.448Z,100756.53
2023-04-21T20:51:58.977Z,100756.31
2023-04-21T20:54:26.071Z,100758.78
2023-04-21T20:56:53.051Z,100756.41
2023-04-21T20:59:19.919Z,100756.06
2023-04-21T21:01:46.819Z,100757.19
2023-04-21T21:04:13.658Z,100756.50
2023-04-21T21:06:40.238Z,100762.00
2023-04-21T21:09:06.766Z,100760.72
2023-04-21T21:11:33.172Z,100756.22
2023-04-21T21:13:59.586Z,100757.56
2023-04-21T21:16:26.947Z,100758.78
2023-04-21T21:18:53.406Z,100769.66
2023-04-21T21:21:19.851Z,100770.59
2023-04-21T21:23:46.296Z,100775.41
2023-04-21T21:26:12.753Z,100771.53
2023-04-21T21:28:39.196Z,100771.09
2023-04-21T21:31:05.991Z,100770.94
2023-04-21T21:33:32.386Z,100771.84
2023-04-21T21:35:59.072Z,100772.09
2023-04-21T21:38:25.506Z,100774.13
2023-04-21T21:40:51.882Z,100774.25
2023-04-21T21:43:18.338Z,100771.13
2023-04-21T21:45:44.801Z,100770.47
2023-04-21T21:48:11.365Z,100770.09
2023-04-21T21:50:37.813Z,100767.28
2023-04-21T21:53:04.229Z,100766.97
2023-04-21T21:55:30.660Z,100769.91
2023-04-21T21:57:57.177Z,100769.44
2023-04-21T22:00:23.844Z,100769.22
2023-04-21T22:02:50.449Z,100771.66
2023-04-21T22:05:17.551Z,100775.22
2023-04-21T22:07:43.969Z,100782.38
2023-04-21T22:10:11.355Z,100782.50
2023-04-21T22:12:37.940Z,100776.31
2023-04-21T22:15:04.962Z,100772.44
2023-04-21T22:17:31.495Z,100770.88
2023-04-21T22:19:57.965Z,100771.75
2023-04-21T22:22:24.355Z,100778.34
2023-04-21T22:24:50.775Z,100777.38
2023-04-21T22:27:17.265Z,100783.81
2023-04-21T22:29:43.731Z,100782.44
2023-04-21T22:32:10.534Z,100790.09
2023-04-21T22:34:36.958Z,100788.28
2023-04-21T22:37:05.613Z,100792.53
2023-04-21T22:39:32.041Z,100793.44
2023-04-21T22:41:58.568Z,100794.72
2023-04-21T22:44:25.067Z,100798.59
2023-04-21T22:46:52.943Z,100797.56
2023-04-21T22:49:19.501Z,100801.84
2023-04-21T22:51:47.200Z,100797.47
2023-04-21T22:54:13.581Z,100802.88
2023-04-21T22:56:40.007Z,100807.88
2023-04-21T22:59:06.443Z,100804.66
2023-04-21T23:01:33.010Z,100800.44
2023-04-21T23:03:59.896Z,100796.00
2023-04-21T23:06:26.647Z,100801.00
2023-04-21T23:08:53.013Z,100793.34
2023-04-21T23:11:19.455Z,100794.44
2023-04-21T23:13:45.847Z,100799.34
2023-04-21T23:16:12.356Z,100800.97
2023-04-21T23:18:38.820Z,100800.47
2023-04-21T23:21:05.253Z,100802.88
2023-04-21T23:23:31.881Z,100801.69
2023-04-21T23:25:58.267Z,100808.13
2023-04-21T23:28:24.895Z,100797.53
2023-04-21T23:30:51.333Z,100808.28
2023-04-21T23:33:17.804Z,100811.53
2023-04-21T23:35:44.465Z,100807.00
2023-04-21T23:38:10.905Z,100807.69
2023-04-21T23:40:37.308Z,100805.88
2023-04-21T23:43:03.859Z,100804.88
2023-04-21T23:45:30.341Z,100800.34
2023-04-21T23:47:56.759Z,100795.28
2023-04-21T23:50:23.346Z,100779.78
2023-04-21T23:52:49.927Z,100790.38
2023-04-21T23:55:16.487Z,100785.44
2023-04-21T23:57:44.877Z,100782.13
